sensor_id;sensor_type;location;lat;lon;timestamp;P1;durP1;ratioP1;P2;durP2;ratioP2
16862;SDS011;52193;48.216;-1.698;2022-12-05T00:00:36;42.72;;;33.20;;
16862;SDS011;52193;48.216;-1.698;2022-12-05T00:03:04;43.53;;;33.35;;
16862;SDS011;52193;48.216;-1.698;2022-12-05T00:05:31;41.72;;;33.58;;
16862;SDS011;52193;48.216;-1.698;2022-12-05T00:07:58;39.00;;;32.03;;
16862;SDS011;52193;48.216;-1.698;2022-12-05T00:10:25;41.70;;;33.45;;
16862;SDS011;52193;48.216;-1.698;2022-12-05T00:12:52;39.22;;;32.83;;
16862;SDS011;52193;48.216;-1.698;2022-12-05T00:15:19;41.13;;;33.20;;
16862;SDS011;52193;48.216;-1.698;2022-12-05T00:17:46;42.03;;;33.55;;
16862;SDS011;52193;48.216;-1.698;2022-12-05T00:20:14;42.72;;;33.67;;
16862;SDS011;52193;48.216;-1.698;2022-12-05T00:22:41;42.63;;;33.93;;
16862;SDS011;52193;48.216;-1.698;2022-12-05T00:25:09;42.97;;;33.45;;
16862;SDS011;52193;48.216;-1.698;2022-12-05T00:27:36;42.22;;;33.50;;
16862;SDS011;52193;48.216;-1.698;2022-12-05T00:30:03;40.05;;;33.08;;
16862;SDS011;52193;48.216;-1.698;2022-12-05T00:32:31;41.72;;;33.53;;
16862;SDS011;52193;48.216;-1.698;2022-12-05T00:34:58;41.40;;;33.33;;
16862;SDS011;52193;48.216;-1.698;2022-12-05T00:37:28;42.75;;;33.92;;
16862;SDS011;52193;48.216;-1.698;2022-12-05T00:39:55;42.95;;;34.15;;
16862;SDS011;52193;48.216;-1.698;2022-12-05T00:42:22;43.37;;;33.90;;
16862;SDS011;52193;48.216;-1.698;2022-12-05T00:44:49;45.40;;;35.38;;
16862;SDS011;52193;48.216;-1.698;2022-12-05T00:47:16;45.22;;;34.40;;
16862;SDS011;52193;48.216;-1.698;2022-12-05T00:49:43;43.42;;;34.42;;
16862;SDS011;52193;48.216;-1.698;2022-12-05T00:52:10;43.17;;;34.03;;
16862;SDS011;52193;48.216;-1.698;2022-12-05T00:54:38;45.10;;;34.72;;
16862;SDS011;52193;48.216;-1.698;2022-12-05T00:57:05;44.77;;;34.20;;
16862;SDS011;52193;48.216;-1.698;2022-12-05T00:59:32;46.28;;;35.75;;
16862;SDS011;52193;48.216;-1.698;2022-12-05T01:01:59;43.28;;;34.13;;
16862;SDS011;52193;48.216;-1.698;2022-12-05T01:04:26;46.95;;;35.17;;
16862;SDS011;52193;48.216;-1.698;2022-12-05T01:06:54;47.80;;;34.90;;
16862;SDS011;52193;48.216;-1.698;2022-12-05T01:09:22;49.33;;;35.50;;
16862;SDS011;52193;48.216;-1.698;2022-12-05T01:11:51;45.20;;;34.88;;
16862;SDS011;52193;48.216;-1.698;2022-12-05T01:14:18;45.53;;;34.87;;
16862;SDS011;52193;48.216;-1.698;2022-12-05T01:16:48;44.17;;;34.60;;
16862;SDS011;52193;48.216;-1.698;2022-12-05T01:19:17;43.70;;;33.90;;
16862;SDS011;52193;48.216;-1.698;2022-12-05T01:21:46;42.92;;;33.58;;
16862;SDS011;52193;48.216;-1.698;2022-12-05T01:24:14;43.60;;;33.47;;
16862;SDS011;52193;48.216;-1.698;2022-12-05T01:26:41;44.25;;;34.22;;
16862;SDS011;52193;48.216;-1.698;2022-12-05T01:29:10;43.03;;;34.40;;
16862;SDS011;52193;48.216;-1.698;2022-12-05T01:31:39;43.38;;;34.42;;
16862;SDS011;52193;48.216;-1.698;2022-12-05T01:34:06;43.80;;;34.45;;
16862;SDS011;52193;48.216;-1.698;2022-12-05T01:36:35;42.03;;;33.38;;
16862;SDS011;52193;48.216;-1.698;2022-12-05T01:39:03;42.58;;;33.63;;
16862;SDS011;52193;48.216;-1.698;2022-12-05T01:41:31;42.50;;;33.95;;
16862;SDS011;52193;48.216;-1.698;2022-12-05T01:44:00;43.08;;;33.60;;
16862;SDS011;52193;48.216;-1.698;2022-12-05T01:46:31;41.92;;;33.25;;
16862;SDS011;52193;48.216;-1.698;2022-12-05T01:49:00;42.75;;;33.58;;
16862;SDS011;52193;48.216;-1.698;2022-12-05T01:51:30;43.27;;;34.10;;
16862;SDS011;52193;48.216;-1.698;2022-12-05T01:53:59;41.63;;;33.50;;
16862;SDS011;52193;48.216;-1.698;2022-12-05T01:56:27;43.75;;;33.40;;
16862;SDS011;52193;48.216;-1.698;2022-12-05T01:58:57;43.17;;;33.63;;
16862;SDS011;52193;48.216;-1.698;2022-12-05T02:01:25;44.28;;;34.95;;
16862;SDS011;52193;48.216;-1.698;2022-12-05T02:03:55;44.25;;;34.97;;
16862;SDS011;52193;48.216;-1.698;2022-12-05T02:06:24;43.20;;;33.72;;
16862;SDS011;52193;48.216;-1.698;2022-12-05T02:08:52;45.30;;;35.25;;
16862;SDS011;52193;48.216;-1.698;2022-12-05T02:11:19;44.38;;;34.53;;
16862;SDS011;52193;48.216;-1.698;2022-12-05T02:13:54;42.25;;;34.30;;
16862;SDS011;52193;48.216;-1.698;2022-12-05T02:16:35;43.88;;;35.00;;
16862;SDS011;52193;48.216;-1.698;2022-12-05T02:19:16;43.85;;;34.38;;
16862;SDS011;52193;48.216;-1.698;2022-12-05T02:22:04;43.65;;;34.55;;
16862;SDS011;52193;48.216;-1.698;2022-12-05T02:24:54;43.33;;;35.00;;
16862;SDS011;52193;48.216;-1.698;2022-12-05T02:27:45;45.88;;;35.42;;
16862;SDS011;52193;48.216;-1.698;2022-12-05T02:30:34;42.50;;;32.80;;
16862;SDS011;52193;48.216;-1.698;2022-12-05T02:33:07;43.15;;;33.70;;
16862;SDS011;52193;48.216;-1.698;2022-12-05T02:35:45;41.50;;;33.80;;
16862;SDS011;52193;48.216;-1.698;2022-12-05T02:38:24;41.95;;;33.72;;
16862;SDS011;52193;48.216;-1.698;2022-12-05T02:40:57;39.05;;;32.65;;
16862;SDS011;52193;48.216;-1.698;2022-12-05T02:43:31;40.97;;;32.50;;
16862;SDS011;52193;48.216;-1.698;2022-12-05T02:46:06;41.40;;;33.05;;
16862;SDS011;52193;48.216;-1.698;2022-12-05T02:48:36;38.20;;;31.17;;
16862;SDS011;52193;48.216;-1.698;2022-12-05T02:51:04;39.70;;;32.97;;
16862;SDS011;52193;48.216;-1.698;2022-12-05T02:53:33;37.60;;;31.63;;
16862;SDS011;52193;48.216;-1.698;2022-12-05T02:56:01;38.60;;;31.90;;
16862;SDS011;52193;48.216;-1.698;2022-12-05T02:58:31;37.33;;;31.58;;
16862;SDS011;52193;48.216;-1.698;2022-12-05T03:01:03;37.47;;;32.25;;
16862;SDS011;52193;48.216;-1.698;2022-12-05T03:03:31;38.03;;;31.65;;
16862;SDS011;52193;48.216;-1.698;2022-12-05T03:06:01;36.20;;;31.15;;
16862;SDS011;52193;48.216;-1.698;2022-12-05T03:08:32;37.10;;;31.48;;
16862;SDS011;52193;48.216;-1.698;2022-12-05T03:11:05;36.35;;;31.02;;
16862;SDS011;52193;48.216;-1.698;2022-12-05T03:13:34;38.63;;;31.85;;
16862;SDS011;52193;48.216;-1.698;2022-12-05T03:16:06;36.35;;;31.02;;
16862;SDS011;52193;48.216;-1.698;2022-12-05T03:18:40;38.53;;;31.98;;
16862;SDS011;52193;48.216;-1.698;2022-12-05T03:21:13;36.70;;;31.45;;
16862;SDS011;52193;48.216;-1.698;2022-12-05T03:23:48;37.40;;;31.13;;
16862;SDS011;52193;48.216;-1.698;2022-12-05T03:26:24;38.17;;;31.73;;
16862;SDS011;52193;48.216;-1.698;2022-12-05T03:29:03;37.15;;;30.83;;
16862;SDS011;52193;48.216;-1.698;2022-12-05T03:31:41;38.13;;;31.52;;
16862;SDS011;52193;48.216;-1.698;2022-12-05T03:34:13;41.15;;;32.03;;
16862;SDS011;52193;48.216;-1.698;2022-12-05T03:36:45;36.67;;;31.27;;
16862;SDS011;52193;48.216;-1.698;2022-12-05T03:39:17;37.28;;;31.13;;
16862;SDS011;52193;48.216;-1.698;2022-12-05T03:41:51;38.05;;;31.83;;
16862;SDS011;52193;48.216;-1.698;2022-12-05T03:44:22;36.35;;;30.90;;
16862;SDS011;52193;48.216;-1.698;2022-12-05T03:46:58;39.45;;;31.10;;
16862;SDS011;52193;48.216;-1.698;2022-12-05T03:49:31;38.50;;;32.03;;
16862;SDS011;52193;48.216;-1.698;2022-12-05T03:52:03;39.67;;;31.88;;
16862;SDS011;52193;48.216;-1.698;2022-12-05T03:54:35;36.80;;;31.13;;
16862;SDS011;52193;48.216;-1.698;2022-12-05T03:57:07;37.22;;;30.70;;
16862;SDS011;52193;48.216;-1.698;2022-12-05T03:59:39;38.08;;;31.83;;
16862;SDS011;52193;48.216;-1.698;2022-12-05T04:02:11;35.78;;;30.42;;
16862;SDS011;52193;48.216;-1.698;2022-12-05T04:04:45;37.58;;;31.65;;
16862;SDS011;52193;48.216;-1.698;2022-12-05T04:07:16;34.65;;;30.52;;
16862;SDS011;52193;48.216;-1.698;2022-12-05T04:09:46;34.92;;;30.10;;
16862;SDS011;52193;48.216;-1.698;2022-12-05T04:12:18;35.27;;;30.57;;
16862;SDS011;52193;48.216;-1.698;2022-12-05T04:14:49;37.30;;;32.05;;
16862;SDS011;52193;48.216;-1.698;2022-12-05T04:17:20;34.33;;;30.53;;
16862;SDS011;52193;48.216;-1.698;2022-12-05T04:19:56;35.33;;;30.20;;
16862;SDS011;52193;48.216;-1.698;2022-12-05T04:22:44;35.97;;;30.47;;
16862;SDS011;52193;48.216;-1.698;2022-12-05T04:25:12;36.03;;;21.80;;
16862;SDS011;52193;48.216;-1.698;2022-12-05T04:27:59;39.33;;;21.58;;
16862;SDS011;52193;48.216;-1.698;2022-12-05T04:30:34;37.10;;;20.70;;
16862;SDS011;52193;48.216;-1.698;2022-12-05T04:33:05;37.60;;;23.70;;
16862;SDS011;52193;48.216;-1.698;2022-12-05T04:35:39;38.50;;;22.98;;
16862;SDS011;52193;48.216;-1.698;2022-12-05T04:38:10;37.97;;;20.73;;
16862;SDS011;52193;48.216;-1.698;2022-12-05T04:40:42;37.23;;;22.83;;
16862;SDS011;52193;48.216;-1.698;2022-12-05T04:43:14;34.90;;;29.40;;
16862;SDS011;52193;48.216;-1.698;2022-12-05T04:45:43;35.47;;;29.60;;
16862;SDS011;52193;48.216;-1.698;2022-12-05T04:48:12;33.43;;;28.47;;
16862;SDS011;52193;48.216;-1.698;2022-12-05T04:50:43;34.05;;;29.48;;
16862;SDS011;52193;48.216;-1.698;2022-12-05T04:53:13;32.83;;;29.27;;
16862;SDS011;52193;48.216;-1.698;2022-12-05T04:55:42;34.15;;;30.35;;
16862;SDS011;52193;48.216;-1.698;2022-12-05T04:58:12;33.70;;;30.00;;
16862;SDS011;52193;48.216;-1.698;2022-12-05T05:00:44;34.72;;;29.77;;
16862;SDS011;52193;48.216;-1.698;2022-12-05T05:03:16;32.50;;;29.00;;
16862;SDS011;52193;48.216;-1.698;2022-12-05T05:05:48;34.72;;;29.80;;
16862;SDS011;52193;48.216;-1.698;2022-12-05T05:08:18;32.90;;;29.20;;
16862;SDS011;52193;48.216;-1.698;2022-12-05T05:10:48;34.78;;;29.70;;
16862;SDS011;52193;48.216;-1.698;2022-12-05T05:13:19;32.80;;;29.20;;
16862;SDS011;52193;48.216;-1.698;2022-12-05T05:15:46;33.78;;;29.83;;
16862;SDS011;52193;48.216;-1.698;2022-12-05T05:18:13;33.60;;;30.00;;
16862;SDS011;52193;48.216;-1.698;2022-12-05T05:20:40;32.80;;;29.20;;
16862;SDS011;52193;48.216;-1.698;2022-12-05T05:23:09;34.00;;;30.10;;
16862;SDS011;52193;48.216;-1.698;2022-12-05T05:25:36;33.17;;;29.45;;
16862;SDS011;52193;48.216;-1.698;2022-12-05T05:28:03;33.72;;;29.52;;
16862;SDS011;52193;48.216;-1.698;2022-12-05T05:30:30;33.60;;;30.00;;
16862;SDS011;52193;48.216;-1.698;2022-12-05T05:32:57;33.70;;;29.70;;
16862;SDS011;52193;48.216;-1.698;2022-12-05T05:35:24;34.78;;;29.77;;
16862;SDS011;52193;48.216;-1.698;2022-12-05T05:37:51;36.10;;;29.30;;
16862;SDS011;52193;48.216;-1.698;2022-12-05T05:40:20;33.57;;;29.17;;
16862;SDS011;52193;48.216;-1.698;2022-12-05T05:42:47;32.20;;;28.70;;
16862;SDS011;52193;48.216;-1.698;2022-12-05T05:45:15;33.17;;;29.33;;
16862;SDS011;52193;48.216;-1.698;2022-12-05T05:47:42;34.58;;;30.40;;
16862;SDS011;52193;48.216;-1.698;2022-12-05T05:50:10;35.22;;;29.95;;
16862;SDS011;52193;48.216;-1.698;2022-12-05T05:52:37;35.47;;;30.70;;
16862;SDS011;52193;48.216;-1.698;2022-12-05T05:55:04;34.53;;;30.20;;
16862;SDS011;52193;48.216;-1.698;2022-12-05T05:57:34;34.70;;;30.23;;
16862;SDS011;52193;48.216;-1.698;2022-12-05T06:00:02;33.78;;;29.92;;
16862;SDS011;52193;48.216;-1.698;2022-12-05T06:02:31;36.45;;;31.17;;
16862;SDS011;52193;48.216;-1.698;2022-12-05T06:04:59;36.58;;;30.25;;
16862;SDS011;52193;48.216;-1.698;2022-12-05T06:07:26;35.65;;;30.98;;
16862;SDS011;52193;48.216;-1.698;2022-12-05T06:09:53;36.17;;;31.23;;
16862;SDS011;52193;48.216;-1.698;2022-12-05T06:12:20;34.45;;;30.27;;
16862;SDS011;52193;48.216;-1.698;2022-12-05T06:14:49;36.15;;;31.20;;
16862;SDS011;52193;48.216;-1.698;2022-12-05T06:17:16;35.80;;;30.90;;
16862;SDS011;52193;48.216;-1.698;2022-12-05T06:19:43;35.80;;;31.27;;
16862;SDS011;52193;48.216;-1.698;2022-12-05T06:22:11;37.22;;;31.38;;
16862;SDS011;52193;48.216;-1.698;2022-12-05T06:24:38;36.83;;;31.93;;
16862;SDS011;52193;48.216;-1.698;2022-12-05T06:27:05;37.15;;;30.98;;
16862;SDS011;52193;48.216;-1.698;2022-12-05T06:29:32;38.20;;;31.98;;
16862;SDS011;52193;48.216;-1.698;2022-12-05T06:32:01;39.47;;;32.87;;
16862;SDS011;52193;48.216;-1.698;2022-12-05T06:34:28;39.47;;;32.30;;
16862;SDS011;52193;48.216;-1.698;2022-12-05T06:36:56;37.28;;;31.38;;
16862;SDS011;52193;48.216;-1.698;2022-12-05T06:39:24;39.72;;;32.20;;
16862;SDS011;52193;48.216;-1.698;2022-12-05T06:41:51;42.30;;;33.20;;
16862;SDS011;52193;48.216;-1.698;2022-12-05T06:44:18;38.63;;;32.08;;
16862;SDS011;52193;48.216;-1.698;2022-12-05T06:46:45;40.03;;;32.33;;
16862;SDS011;52193;48.216;-1.698;2022-12-05T06:49:14;38.47;;;32.20;;
16862;SDS011;52193;48.216;-1.698;2022-12-05T06:51:41;40.58;;;33.78;;
16862;SDS011;52193;48.216;-1.698;2022-12-05T06:54:09;42.97;;;34.07;;
16862;SDS011;52193;48.216;-1.698;2022-12-05T06:56:37;40.08;;;33.15;;
16862;SDS011;52193;48.216;-1.698;2022-12-05T06:59:04;41.55;;;33.22;;
16862;SDS011;52193;48.216;-1.698;2022-12-05T07:01:31;39.42;;;33.08;;
16862;SDS011;52193;48.216;-1.698;2022-12-05T07:04:03;40.83;;;33.80;;
16862;SDS011;52193;48.216;-1.698;2022-12-05T07:06:33;42.40;;;33.95;;
16862;SDS011;52193;48.216;-1.698;2022-12-05T07:09:00;42.47;;;34.30;;
16862;SDS011;52193;48.216;-1.698;2022-12-05T07:11:28;41.38;;;33.47;;
16862;SDS011;52193;48.216;-1.698;2022-12-05T07:13:55;41.90;;;34.05;;
16862;SDS011;52193;48.216;-1.698;2022-12-05T07:16:22;43.90;;;35.30;;
16862;SDS011;52193;48.216;-1.698;2022-12-05T07:18:49;41.60;;;33.88;;
16862;SDS011;52193;48.216;-1.698;2022-12-05T07:21:17;42.72;;;33.65;;
16862;SDS011;52193;48.216;-1.698;2022-12-05T07:23:47;44.00;;;35.33;;
16862;SDS011;52193;48.216;-1.698;2022-12-05T07:26:16;43.47;;;34.65;;
16862;SDS011;52193;48.216;-1.698;2022-12-05T07:28:44;43.10;;;34.03;;
16862;SDS011;52193;48.216;-1.698;2022-12-05T07:31:12;42.08;;;34.50;;
16862;SDS011;52193;48.216;-1.698;2022-12-05T07:33:40;42.03;;;34.25;;
16862;SDS011;52193;48.216;-1.698;2022-12-05T07:36:08;43.90;;;34.67;;
16862;SDS011;52193;48.216;-1.698;2022-12-05T07:38:37;43.03;;;34.03;;
16862;SDS011;52193;48.216;-1.698;2022-12-05T07:41:06;44.92;;;35.20;;
16862;SDS011;52193;48.216;-1.698;2022-12-05T07:43:35;43.23;;;33.73;;
16862;SDS011;52193;48.216;-1.698;2022-12-05T07:46:02;44.20;;;33.63;;
16862;SDS011;52193;48.216;-1.698;2022-12-05T07:48:29;43.08;;;33.63;;
16862;SDS011;52193;48.216;-1.698;2022-12-05T07:50:59;41.90;;;33.47;;
16862;SDS011;52193;48.216;-1.698;2022-12-05T07:53:27;43.65;;;34.10;;
16862;SDS011;52193;48.216;-1.698;2022-12-05T07:55:57;43.35;;;33.92;;
16862;SDS011;52193;48.216;-1.698;2022-12-05T07:58:26;44.60;;;34.60;;
16862;SDS011;52193;48.216;-1.698;2022-12-05T08:00:53;45.38;;;34.22;;
16862;SDS011;52193;48.216;-1.698;2022-12-05T08:03:20;41.58;;;33.95;;
16862;SDS011;52193;48.216;-1.698;2022-12-05T08:05:47;42.78;;;34.15;;
16862;SDS011;52193;48.216;-1.698;2022-12-05T08:08:14;43.20;;;34.83;;
16862;SDS011;52193;48.216;-1.698;2022-12-05T08:10:41;42.80;;;34.90;;
16862;SDS011;52193;48.216;-1.698;2022-12-05T08:13:08;43.55;;;34.25;;
16862;SDS011;52193;48.216;-1.698;2022-12-05T08:15:37;45.50;;;35.72;;
16862;SDS011;52193;48.216;-1.698;2022-12-05T08:18:04;44.97;;;34.80;;
16862;SDS011;52193;48.216;-1.698;2022-12-05T08:20:31;44.63;;;34.60;;
16862;SDS011;52193;48.216;-1.698;2022-12-05T08:22:57;44.50;;;34.37;;
16862;SDS011;52193;48.216;-1.698;2022-12-05T08:25:24;44.75;;;34.25;;
16862;SDS011;52193;48.216;-1.698;2022-12-05T08:27:51;42.25;;;34.53;;
16862;SDS011;52193;48.216;-1.698;2022-12-05T08:30:18;44.22;;;35.42;;
16862;SDS011;52193;48.216;-1.698;2022-12-05T08:32:47;44.40;;;35.13;;
16862;SDS011;52193;48.216;-1.698;2022-12-05T08:35:14;43.10;;;34.47;;
16862;SDS011;52193;48.216;-1.698;2022-12-05T08:37:41;45.88;;;35.00;;
16862;SDS011;52193;48.216;-1.698;2022-12-05T08:40:08;45.38;;;35.28;;
16862;SDS011;52193;48.216;-1.698;2022-12-05T08:42:35;45.08;;;35.00;;
16862;SDS011;52193;48.216;-1.698;2022-12-05T08:45:03;45.30;;;33.97;;
16862;SDS011;52193;48.216;-1.698;2022-12-05T08:47:30;43.45;;;34.70;;
16862;SDS011;52193;48.216;-1.698;2022-12-05T08:49:58;42.65;;;34.47;;
16862;SDS011;52193;48.216;-1.698;2022-12-05T08:52:25;42.47;;;33.90;;
16862;SDS011;52193;48.216;-1.698;2022-12-05T08:54:52;42.08;;;33.97;;
16862;SDS011;52193;48.216;-1.698;2022-12-05T08:57:19;45.40;;;36.00;;
16862;SDS011;52193;48.216;-1.698;2022-12-05T08:59:46;45.67;;;35.83;;
16862;SDS011;52193;48.216;-1.698;2022-12-05T09:02:13;47.33;;;36.63;;
16862;SDS011;52193;48.216;-1.698;2022-12-05T09:04:40;44.88;;;35.78;;
16862;SDS011;52193;48.216;-1.698;2022-12-05T09:07:08;50.47;;;38.60;;
16862;SDS011;52193;48.216;-1.698;2022-12-05T09:09:35;47.28;;;37.17;;
16862;SDS011;52193;48.216;-1.698;2022-12-05T09:12:03;46.53;;;36.60;;
16862;SDS011;52193;48.216;-1.698;2022-12-05T09:14:30;47.70;;;36.97;;
16862;SDS011;52193;48.216;-1.698;2022-12-05T09:16:57;46.28;;;35.90;;
16862;SDS011;52193;48.216;-1.698;2022-12-05T09:19:25;46.10;;;36.43;;
16862;SDS011;52193;48.216;-1.698;2022-12-05T09:21:52;46.08;;;37.03;;
16862;SDS011;52193;48.216;-1.698;2022-12-05T09:24:21;48.78;;;37.28;;
16862;SDS011;52193;48.216;-1.698;2022-12-05T09:26:49;47.80;;;37.22;;
16862;SDS011;52193;48.216;-1.698;2022-12-05T09:29:16;47.97;;;37.17;;
16862;SDS011;52193;48.216;-1.698;2022-12-05T09:31:43;46.83;;;36.33;;
16862;SDS011;52193;48.216;-1.698;2022-12-05T09:34:11;47.55;;;37.17;;
16862;SDS011;52193;48.216;-1.698;2022-12-05T09:36:39;50.38;;;38.05;;
16862;SDS011;52193;48.216;-1.698;2022-12-05T09:39:06;50.23;;;39.60;;
16862;SDS011;52193;48.216;-1.698;2022-12-05T09:41:57;48.47;;;38.50;;
16862;SDS011;52193;48.216;-1.698;2022-12-05T09:45:03;47.78;;;37.72;;
16862;SDS011;52193;48.216;-1.698;2022-12-05T09:47:41;52.73;;;38.67;;
16862;SDS011;52193;48.216;-1.698;2022-12-05T09:50:16;52.15;;;40.83;;
16862;SDS011;52193;48.216;-1.698;2022-12-05T09:52:50;50.65;;;39.53;;
16862;SDS011;52193;48.216;-1.698;2022-12-05T09:55:35;51.38;;;37.80;;
16862;SDS011;52193;48.216;-1.698;2022-12-05T09:58:19;49.45;;;38.13;;
16862;SDS011;52193;48.216;-1.698;2022-12-05T10:00:50;47.83;;;37.75;;
16862;SDS011;52193;48.216;-1.698;2022-12-05T10:03:24;50.70;;;39.83;;
16862;SDS011;52193;48.216;-1.698;2022-12-05T10:06:01;58.17;;;42.72;;
16862;SDS011;52193;48.216;-1.698;2022-12-05T10:08:39;56.45;;;41.70;;
16862;SDS011;52193;48.216;-1.698;2022-12-05T10:11:24;55.93;;;43.83;;
16862;SDS011;52193;48.216;-1.698;2022-12-05T10:14:01;60.53;;;45.08;;
16862;SDS011;52193;48.216;-1.698;2022-12-05T10:16:34;49.67;;;38.50;;
16862;SDS011;52193;48.216;-1.698;2022-12-05T10:19:09;50.60;;;39.92;;
16862;SDS011;52193;48.216;-1.698;2022-12-05T10:21:38;49.85;;;38.80;;
16862;SDS011;52193;48.216;-1.698;2022-12-05T10:24:13;47.30;;;37.20;;
16862;SDS011;52193;48.216;-1.698;2022-12-05T10:26:43;48.30;;;37.13;;
16862;SDS011;52193;48.216;-1.698;2022-12-05T10:29:17;48.90;;;37.88;;
16862;SDS011;52193;48.216;-1.698;2022-12-05T10:31:53;49.40;;;38.92;;
16862;SDS011;52193;48.216;-1.698;2022-12-05T10:34:28;49.55;;;38.28;;
16862;SDS011;52193;48.216;-1.698;2022-12-05T10:37:01;50.38;;;37.88;;
16862;SDS011;52193;48.216;-1.698;2022-12-05T10:39:34;48.20;;;37.97;;
16862;SDS011;52193;48.216;-1.698;2022-12-05T10:42:02;46.90;;;36.50;;
16862;SDS011;52193;48.216;-1.698;2022-12-05T10:44:31;46.70;;;36.10;;
16862;SDS011;52193;48.216;-1.698;2022-12-05T10:46:59;44.50;;;35.33;;
16862;SDS011;52193;48.216;-1.698;2022-12-05T10:49:26;48.95;;;36.88;;
16862;SDS011;52193;48.216;-1.698;2022-12-05T10:51:54;47.05;;;36.80;;
16862;SDS011;52193;48.216;-1.698;2022-12-05T10:54:22;48.38;;;37.03;;
16862;SDS011;52193;48.216;-1.698;2022-12-05T10:56:52;48.88;;;36.83;;
16862;SDS011;52193;48.216;-1.698;2022-12-05T10:59:20;47.88;;;37.55;;
16862;SDS011;52193;48.216;-1.698;2022-12-05T11:01:50;47.25;;;37.70;;
16862;SDS011;52193;48.216;-1.698;2022-12-05T11:04:20;44.65;;;36.17;;
16862;SDS011;52193;48.216;-1.698;2022-12-05T11:06:50;52.90;;;39.92;;
16862;SDS011;52193;48.216;-1.698;2022-12-05T11:09:21;52.92;;;40.70;;
16862;SDS011;52193;48.216;-1.698;2022-12-05T11:11:56;44.55;;;34.70;;
16862;SDS011;52193;48.216;-1.698;2022-12-05T11:14:57;46.05;;;35.97;;
16862;SDS011;52193;48.216;-1.698;2022-12-05T11:17:33;45.37;;;36.13;;
16862;SDS011;52193;48.216;-1.698;2022-12-05T11:20:01;44.28;;;34.65;;
16862;SDS011;52193;48.216;-1.698;2022-12-05T11:22:51;44.00;;;34.08;;
16862;SDS011;52193;48.216;-1.698;2022-12-05T11:25:24;44.65;;;34.47;;
16862;SDS011;52193;48.216;-1.698;2022-12-05T11:27:55;42.42;;;33.35;;
16862;SDS011;52193;48.216;-1.698;2022-12-05T11:30:25;40.85;;;33.75;;
16862;SDS011;52193;48.216;-1.698;2022-12-05T11:33:01;42.38;;;33.47;;
16862;SDS011;52193;48.216;-1.698;2022-12-05T11:35:36;44.03;;;33.90;;
16862;SDS011;52193;48.216;-1.698;2022-12-05T11:38:05;43.50;;;34.00;;
16862;SDS011;52193;48.216;-1.698;2022-12-05T11:40:36;39.72;;;32.60;;
16862;SDS011;52193;48.216;-1.698;2022-12-05T11:43:13;40.88;;;32.42;;
16862;SDS011;52193;48.216;-1.698;2022-12-05T11:46:02;40.65;;;32.85;;
16862;SDS011;52193;48.216;-1.698;2022-12-05T11:48:44;39.83;;;31.77;;
16862;SDS011;52193;48.216;-1.698;2022-12-05T11:51:27;39.13;;;31.50;;
16862;SDS011;52193;48.216;-1.698;2022-12-05T11:54:09;36.38;;;30.13;;
16862;SDS011;52193;48.216;-1.698;2022-12-05T11:56:49;36.45;;;29.70;;
16862;SDS011;52193;48.216;-1.698;2022-12-05T11:59:33;36.93;;;29.73;;
16862;SDS011;52193;48.216;-1.698;2022-12-05T12:02:19;30.77;;;26.15;;
16862;SDS011;52193;48.216;-1.698;2022-12-05T12:04:57;23.57;;;20.80;;
16862;SDS011;52193;48.216;-1.698;2022-12-05T12:07:35;22.20;;;19.80;;
16862;SDS011;52193;48.216;-1.698;2022-12-05T12:10:22;19.95;;;17.85;;
16862;SDS011;52193;48.216;-1.698;2022-12-05T12:13:01;18.40;;;16.50;;
16862;SDS011;52193;48.216;-1.698;2022-12-05T12:15:42;18.60;;;16.70;;
16862;SDS011;52193;48.216;-1.698;2022-12-05T12:18:21;18.50;;;16.58;;
16862;SDS011;52193;48.216;-1.698;2022-12-05T12:21:04;14.40;;;13.10;;
16862;SDS011;52193;48.216;-1.698;2022-12-05T12:23:43;16.67;;;14.88;;
16862;SDS011;52193;48.216;-1.698;2022-12-05T12:26:21;17.83;;;15.93;;
16862;SDS011;52193;48.216;-1.698;2022-12-05T12:28:58;19.92;;;17.83;;
16862;SDS011;52193;48.216;-1.698;2022-12-05T12:31:39;23.40;;;19.63;;
16862;SDS011;52193;48.216;-1.698;2022-12-05T12:34:27;21.90;;;19.17;;
16862;SDS011;52193;48.216;-1.698;2022-12-05T12:37:07;20.50;;;18.00;;
16862;SDS011;52193;48.216;-1.698;2022-12-05T12:39:44;20.85;;;18.65;;
16862;SDS011;52193;48.216;-1.698;2022-12-05T12:42:22;21.42;;;18.95;;
16862;SDS011;52193;48.216;-1.698;2022-12-05T12:44:59;23.03;;;20.17;;
16862;SDS011;52193;48.216;-1.698;2022-12-05T12:47:41;26.23;;;22.70;;
16862;SDS011;52193;48.216;-1.698;2022-12-05T12:50:17;31.93;;;26.60;;
16862;SDS011;52193;48.216;-1.698;2022-12-05T12:52:51;42.60;;;33.60;;
16862;SDS011;52193;48.216;-1.698;2022-12-05T12:55:43;38.60;;;30.90;;
16862;SDS011;52193;48.216;-1.698;2022-12-05T12:58:18;41.97;;;33.37;;
16862;SDS011;52193;48.216;-1.698;2022-12-05T13:00:55;43.23;;;35.30;;
16862;SDS011;52193;48.216;-1.698;2022-12-05T13:03:28;46.83;;;37.55;;
16862;SDS011;52193;48.216;-1.698;2022-12-05T13:06:01;37.75;;;31.50;;
16862;SDS011;52193;48.216;-1.698;2022-12-05T13:08:34;35.35;;;29.52;;
16862;SDS011;52193;48.216;-1.698;2022-12-05T13:11:06;34.15;;;28.08;;
16862;SDS011;52193;48.216;-1.698;2022-12-05T13:13:37;32.72;;;28.27;;
16862;SDS011;52193;48.216;-1.698;2022-12-05T13:16:09;33.00;;;28.95;;
16862;SDS011;52193;48.216;-1.698;2022-12-05T13:18:41;33.40;;;28.83;;
16862;SDS011;52193;48.216;-1.698;2022-12-05T13:21:08;30.88;;;27.30;;
16862;SDS011;52193;48.216;-1.698;2022-12-05T13:23:39;30.17;;;26.98;;
16862;SDS011;52193;48.216;-1.698;2022-12-05T13:26:10;30.07;;;26.10;;
16862;SDS011;52193;48.216;-1.698;2022-12-05T13:28:40;28.17;;;25.17;;
16862;SDS011;52193;48.216;-1.698;2022-12-05T13:31:15;28.10;;;25.20;;
16862;SDS011;52193;48.216;-1.698;2022-12-05T13:33:43;26.67;;;24.05;;
16862;SDS011;52193;48.216;-1.698;2022-12-05T13:36:12;27.88;;;24.88;;
16862;SDS011;52193;48.216;-1.698;2022-12-05T13:38:59;28.35;;;25.35;;
16862;SDS011;52193;48.216;-1.698;2022-12-05T13:41:46;26.75;;;23.95;;
16862;SDS011;52193;48.216;-1.698;2022-12-05T13:44:36;27.05;;;24.25;;
16862;SDS011;52193;48.216;-1.698;2022-12-05T13:47:06;28.58;;;25.48;;
16862;SDS011;52193;48.216;-1.698;2022-12-05T13:49:46;29.23;;;26.13;;
16862;SDS011;52193;48.216;-1.698;2022-12-05T13:52:18;28.77;;;25.70;;
16862;SDS011;52193;48.216;-1.698;2022-12-05T13:54:49;28.08;;;25.10;;
16862;SDS011;52193;48.216;-1.698;2022-12-05T14:00:24;26.83;;;24.02;;
16862;SDS011;52193;48.216;-1.698;2022-12-05T14:02:57;27.63;;;24.75;;
16862;SDS011;52193;48.216;-1.698;2022-12-05T14:05:41;29.98;;;26.88;;
16862;SDS011;52193;48.216;-1.698;2022-12-05T14:11:21;26.25;;;23.55;;
16862;SDS011;52193;48.216;-1.698;2022-12-05T14:13:48;25.77;;;23.08;;
16862;SDS011;52193;48.216;-1.698;2022-12-05T14:19:27;26.10;;;23.45;;
16862;SDS011;52193;48.216;-1.698;2022-12-05T14:22:19;25.92;;;23.33;;
16862;SDS011;52193;48.216;-1.698;2022-12-05T14:25:05;25.70;;;23.10;;
16862;SDS011;52193;48.216;-1.698;2022-12-05T14:27:47;25.48;;;22.77;;
16862;SDS011;52193;48.216;-1.698;2022-12-05T14:30:21;25.33;;;22.83;;
16862;SDS011;52193;48.216;-1.698;2022-12-05T14:32:52;25.23;;;22.60;;
16862;SDS011;52193;48.216;-1.698;2022-12-05T14:35:21;27.15;;;24.35;;
16862;SDS011;52193;48.216;-1.698;2022-12-05T14:37:54;27.00;;;24.23;;
16862;SDS011;52193;48.216;-1.698;2022-12-05T14:40:26;28.30;;;25.40;;
16862;SDS011;52193;48.216;-1.698;2022-12-05T14:42:56;32.65;;;28.60;;